AZU4238 SBBR-SBRF
Flight info
| Callsign | AZU4238 |
|---|---|
| Flight time | 2h 12m |
| Altitude | 37000 |
| Route | UGTAK UZ19 EPGEM DCT EGIKO DCT MUDAR |
| Aircraft | E195/M-SDE3GILORVW/S |
Departure
| Time | 2026-05-05 20:06 |
|---|---|
| Airport | Presidente Juscelino Kubitschek International Airport (SBBR) |
Arrival
| Time | 2026-05-05 22:18 |
|---|---|
| Airport | Recife/Guararapes - Gilberto Freyre International Airport (SBRF) |
| Time | Latitude | Longitude | Altitude | Speed | Heading |
|---|---|---|---|---|---|
| 2026-05-05 19:37 | -15.86970 | -47.92003 | 3474 ft | 0 kts | 266° |
| 2026-05-05 19:54 | -15.86969 | -47.91978 | 3476 ft | 4 kts | 267° |
| 2026-05-05 19:54 | -15.86969 | -47.91951 | 3476 ft | 4 kts | 283° |
| 2026-05-05 19:55 | -15.86978 | -47.91931 | 3474 ft | 3 kts | 354° |
| 2026-05-05 19:55 | -15.86995 | -47.91930 | 3476 ft | 0 kts | 355° |
| 2026-05-05 19:55 | -15.86975 | -47.91931 | 3476 ft | 4 kts | 355° |
| 2026-05-05 19:55 | -15.86948 | -47.91933 | 3476 ft | 4 kts | 355° |
| 2026-05-05 19:56 | -15.86921 | -47.91935 | 3474 ft | 4 kts | 356° |
| 2026-05-05 19:56 | -15.86913 | -47.91936 | 3476 ft | 0 kts | 356° |
| 2026-05-05 19:59 | -15.86908 | -47.91931 | 3476 ft | 2 kts | 37° |
| 2026-05-05 19:59 | -15.86910 | -47.91909 | 3474 ft | 6 kts | 98° |
| 2026-05-05 19:59 | -15.86913 | -47.91849 | 3474 ft | 10 kts | 82° |
| 2026-05-05 19:59 | -15.86906 | -47.91756 | 3474 ft | 16 kts | 85° |
| 2026-05-05 20:00 | -15.86840 | -47.91700 | 3475 ft | 15 kts | 354° |
| 2026-05-05 20:00 | -15.86732 | -47.91707 | 3474 ft | 17 kts | 356° |
| 2026-05-05 20:00 | -15.86624 | -47.91734 | 3472 ft | 15 kts | 310° |
| 2026-05-05 20:00 | -15.86616 | -47.91838 | 3475 ft | 15 kts | 266° |
| 2026-05-05 20:01 | -15.86622 | -47.91955 | 3475 ft | 16 kts | 267° |
| 2026-05-05 20:01 | -15.86628 | -47.92074 | 3474 ft | 17 kts | 266° |
| 2026-05-05 20:01 | -15.86619 | -47.92195 | 3470 ft | 18 kts | 294° |
| 2026-05-05 20:01 | -15.86559 | -47.92316 | 3471 ft | 17 kts | 305° |
| 2026-05-05 20:02 | -15.86530 | -47.92423 | 3474 ft | 15 kts | 266° |
| 2026-05-05 20:02 | -15.86537 | -47.92530 | 3474 ft | 15 kts | 266° |
| 2026-05-05 20:02 | -15.86545 | -47.92662 | 3464 ft | 22 kts | 267° |
| 2026-05-05 20:02 | -15.86520 | -47.92764 | 3459 ft | 11 kts | 338° |
| 2026-05-05 20:03 | -15.86450 | -47.92766 | 3458 ft | 10 kts | 357° |
| 2026-05-05 20:03 | -15.86385 | -47.92734 | 3456 ft | 11 kts | 43° |
| 2026-05-05 20:03 | -15.86351 | -47.92667 | 3457 ft | 3 kts | 84° |
| 2026-05-05 20:05 | -15.86347 | -47.92615 | 3459 ft | 30 kts | 86° |
| 2026-05-05 20:05 | -15.86320 | -47.92179 | 3467 ft | 91 kts | 86° |
| 2026-05-05 20:05 | -15.86265 | -47.91321 | 3463 ft | 146 kts | 86° |
| 2026-05-05 20:05 | -15.86204 | -47.90120 | 3621 ft | 183 kts | 88° |
| 2026-05-05 20:06 | -15.86080 | -47.88721 | 4241 ft | 198 kts | 84° |
| 2026-05-05 20:06 | -15.85927 | -47.87297 | 5240 ft | 203 kts | 88° |
| 2026-05-05 20:06 | -15.85847 | -47.85792 | 5907 ft | 213 kts | 89° |
| 2026-05-05 20:06 | -15.85781 | -47.84217 | 6575 ft | 225 kts | 88° |
| 2026-05-05 20:07 | -15.85687 | -47.82525 | 7142 ft | 248 kts | 87° |
| 2026-05-05 20:07 | -15.85567 | -47.80660 | 7729 ft | 269 kts | 86° |
| 2026-05-05 20:07 | -15.85444 | -47.78677 | 8535 ft | 280 kts | 87° |
| 2026-05-05 20:07 | -15.85313 | -47.76615 | 9038 ft | 287 kts | 86° |
| 2026-05-05 20:08 | -15.85178 | -47.74529 | 9077 ft | 289 kts | 87° |
| 2026-05-05 20:08 | -15.85043 | -47.72485 | 9059 ft | 286 kts | 86° |
| 2026-05-05 20:08 | -15.84976 | -47.70431 | 9050 ft | 284 kts | 91° |
| 2026-05-05 20:08 | -15.85035 | -47.68390 | 9009 ft | 283 kts | 92° |
| 2026-05-05 20:09 | -15.85085 | -47.66324 | 9002 ft | 282 kts | 91° |
| 2026-05-05 20:09 | -15.85116 | -47.64312 | 8998 ft | 282 kts | 91° |
| 2026-05-05 20:09 | -15.85149 | -47.62283 | 9024 ft | 282 kts | 91° |
| 2026-05-05 20:09 | -15.85168 | -47.60238 | 8988 ft | 284 kts | 91° |
| 2026-05-05 20:10 | -15.85185 | -47.58190 | 8986 ft | 283 kts | 91° |
| 2026-05-05 20:10 | -15.84935 | -47.56173 | 9331 ft | 288 kts | 69° |
| 2026-05-05 20:10 | -15.83772 | -47.54466 | 10330 ft | 298 kts | 44° |
| 2026-05-05 20:10 | -15.82074 | -47.53083 | 10993 ft | 318 kts | 36° |
| 2026-05-05 20:11 | -15.80243 | -47.51752 | 11970 ft | 323 kts | 36° |
| 2026-05-05 20:11 | -15.78408 | -47.50403 | 12994 ft | 325 kts | 36° |
| 2026-05-05 20:11 | -15.76544 | -47.49035 | 13893 ft | 331 kts | 36° |
| 2026-05-05 20:11 | -15.74629 | -47.47658 | 14717 ft | 338 kts | 35° |
| 2026-05-05 20:12 | -15.72663 | -47.46269 | 15575 ft | 345 kts | 35° |
| 2026-05-05 20:12 | -15.70660 | -47.44857 | 16407 ft | 351 kts | 35° |
| 2026-05-05 20:12 | -15.68615 | -47.43426 | 17187 ft | 358 kts | 34° |
| 2026-05-05 20:12 | -15.66521 | -47.41978 | 17895 ft | 365 kts | 34° |
| 2026-05-05 20:13 | -15.64383 | -47.40515 | 18623 ft | 370 kts | 33° |
| 2026-05-05 20:13 | -15.62214 | -47.39044 | 19312 ft | 375 kts | 33° |
| 2026-05-05 20:13 | -15.60007 | -47.37557 | 19972 ft | 381 kts | 33° |
| 2026-05-05 20:13 | -15.57769 | -47.36061 | 20612 ft | 385 kts | 33° |
| 2026-05-05 20:14 | -15.55573 | -47.34439 | 21224 ft | 389 kts | 44° |
| 2026-05-05 20:14 | -15.53916 | -47.32226 | 21839 ft | 390 kts | 59° |
| 2026-05-05 20:14 | -15.52551 | -47.29776 | 22427 ft | 395 kts | 62° |
| 2026-05-05 20:14 | -15.51184 | -47.27288 | 22961 ft | 400 kts | 61° |
| 2026-05-05 20:15 | -15.49774 | -47.24789 | 23514 ft | 403 kts | 60° |
| 2026-05-05 20:15 | -15.48337 | -47.22279 | 24041 ft | 407 kts | 60° |
| 2026-05-05 20:15 | -15.46879 | -47.19743 | 24541 ft | 411 kts | 60° |
| 2026-05-05 20:15 | -15.45405 | -47.17184 | 24990 ft | 416 kts | 60° |
| 2026-05-05 20:16 | -15.43915 | -47.14602 | 25436 ft | 419 kts | 60° |
| 2026-05-05 20:16 | -15.42413 | -47.11994 | 25851 ft | 424 kts | 60° |
| 2026-05-05 20:16 | -15.40897 | -47.09363 | 26292 ft | 427 kts | 60° |
| 2026-05-05 20:16 | -15.39367 | -47.06710 | 26692 ft | 431 kts | 60° |
| 2026-05-05 20:17 | -15.37827 | -47.04037 | 27128 ft | 434 kts | 60° |
| 2026-05-05 20:17 | -15.36273 | -47.01341 | 27487 ft | 438 kts | 60° |
| 2026-05-05 20:17 | -15.34709 | -46.98623 | 27889 ft | 441 kts | 60° |
| 2026-05-05 20:17 | -15.33155 | -46.95925 | 28263 ft | 444 kts | 60° |
| 2026-05-05 20:18 | -15.31565 | -46.93168 | 28625 ft | 447 kts | 60° |
| 2026-05-05 20:18 | -15.29967 | -46.90395 | 28974 ft | 450 kts | 60° |
| 2026-05-05 20:18 | -15.28362 | -46.87607 | 29378 ft | 451 kts | 60° |
| 2026-05-05 20:18 | -15.26755 | -46.84820 | 29782 ft | 451 kts | 60° |
| 2026-05-05 20:19 | -15.25150 | -46.82033 | 30199 ft | 450 kts | 60° |
| 2026-05-05 20:19 | -15.23542 | -46.79247 | 30520 ft | 451 kts | 60° |
| 2026-05-05 20:19 | -15.21929 | -46.76444 | 30802 ft | 454 kts | 60° |
| 2026-05-05 20:19 | -15.20313 | -46.73636 | 31135 ft | 455 kts | 60° |
| 2026-05-05 20:20 | -15.18688 | -46.70818 | 31471 ft | 456 kts | 60° |
| 2026-05-05 20:20 | -15.17062 | -46.67998 | 31807 ft | 457 kts | 61° |
| 2026-05-05 20:20 | -15.15984 | -46.66128 | 32019 ft | 457 kts | 61° |
| 2026-05-05 20:20 | -15.13801 | -46.62339 | 32415 ft | 459 kts | 61° |
| 2026-05-05 20:21 | -15.12717 | -46.60460 | 32626 ft | 459 kts | 61° |
| 2026-05-05 20:21 | -15.11079 | -46.57618 | 32937 ft | 460 kts | 62° |
| 2026-05-05 20:21 | -15.09436 | -46.54767 | 33200 ft | 462 kts | 62° |
| 2026-05-05 20:21 | -15.07799 | -46.51906 | 33490 ft | 462 kts | 67° |
| 2026-05-05 20:22 | -15.06305 | -46.48954 | 33653 ft | 464 kts | 69° |
| 2026-05-05 20:22 | -15.04810 | -46.45997 | 33877 ft | 464 kts | 68° |
| 2026-05-05 20:22 | -15.03232 | -46.43078 | 34097 ft | 466 kts | 66° |
| 2026-05-05 20:22 | -15.01608 | -46.40174 | 34314 ft | 466 kts | 66° |
| 2026-05-05 20:23 | -14.99963 | -46.37284 | 34526 ft | 466 kts | 65° |
| 2026-05-05 20:23 | -14.98309 | -46.34402 | 34736 ft | 466 kts | 65° |
| 2026-05-05 20:23 | -14.96647 | -46.31520 | 34944 ft | 466 kts | 65° |
| 2026-05-05 20:23 | -14.94992 | -46.28644 | 35137 ft | 465 kts | 65° |
| 2026-05-05 20:24 | -14.93339 | -46.25772 | 35326 ft | 465 kts | 65° |
| 2026-05-05 20:24 | -14.91697 | -46.22899 | 35480 ft | 464 kts | 68° |
| 2026-05-05 20:24 | -14.90409 | -46.19875 | 35658 ft | 457 kts | 79° |
| 2026-05-05 20:25 | -14.88528 | -46.13584 | 35724 ft | 460 kts | 80° |
| 2026-05-05 20:25 | -14.87578 | -46.10432 | 35902 ft | 458 kts | 80° |
| 2026-05-05 20:25 | -14.86623 | -46.07293 | 36053 ft | 457 kts | 80° |
| 2026-05-05 20:26 | -14.84707 | -46.01017 | 36214 ft | 458 kts | 80° |
| 2026-05-05 20:26 | -14.82779 | -45.94731 | 36329 ft | 459 kts | 79° |
| 2026-05-05 20:27 | -14.80841 | -45.88437 | 36515 ft | 458 kts | 79° |
| 2026-05-05 20:27 | -14.78926 | -45.82214 | 36748 ft | 455 kts | 79° |
| 2026-05-05 20:27 | -14.77968 | -45.79102 | 36879 ft | 453 kts | 79° |
| 2026-05-05 20:28 | -14.77017 | -45.76007 | 37001 ft | 451 kts | 79° |
| 2026-05-05 20:28 | -14.76073 | -45.72927 | 37176 ft | 442 kts | 80° |
| 2026-05-05 20:28 | -14.75157 | -45.69922 | 37289 ft | 440 kts | 80° |
| 2026-05-05 20:29 | -14.73314 | -45.63877 | 37183 ft | 443 kts | 79° |
| 2026-05-05 20:29 | -14.71445 | -45.57825 | 37220 ft | 442 kts | 79° |
| 2026-05-05 20:30 | -14.69556 | -45.51760 | 37197 ft | 444 kts | 79° |
| 2026-05-05 20:30 | -14.67662 | -45.45684 | 37184 ft | 446 kts | 79° |
| 2026-05-05 20:31 | -14.65760 | -45.39585 | 37195 ft | 447 kts | 79° |
| 2026-05-05 20:31 | -14.63849 | -45.33465 | 37207 ft | 449 kts | 79° |
| 2026-05-05 20:32 | -14.61926 | -45.27313 | 37184 ft | 451 kts | 79° |
| 2026-05-05 20:32 | -14.59997 | -45.21139 | 37176 ft | 454 kts | 79° |
| 2026-05-05 20:33 | -14.58050 | -45.14921 | 37192 ft | 457 kts | 79° |
| 2026-05-05 20:33 | -14.56090 | -45.08663 | 37201 ft | 460 kts | 79° |
| 2026-05-05 20:34 | -14.54107 | -45.02350 | 37170 ft | 465 kts | 78° |
| 2026-05-05 20:34 | -14.52100 | -44.95979 | 37178 ft | 470 kts | 78° |
| 2026-05-05 20:35 | -14.50076 | -44.89575 | 37178 ft | 475 kts | 78° |
| 2026-05-05 20:35 | -14.48017 | -44.83069 | 37179 ft | 478 kts | 78° |
| 2026-05-05 20:35 | -14.46794 | -44.79879 | 37120 ft | 481 kts | 65° |
| 2026-05-05 20:36 | -14.44954 | -44.77004 | 37206 ft | 482 kts | 56° |
| 2026-05-05 20:36 | -14.40705 | -44.71671 | 37163 ft | 481 kts | 54° |
| 2026-05-05 20:37 | -14.36515 | -44.66298 | 37165 ft | 480 kts | 55° |
| 2026-05-05 20:37 | -14.32367 | -44.60902 | 37175 ft | 479 kts | 55° |
| 2026-05-05 20:38 | -14.28232 | -44.55514 | 37164 ft | 479 kts | 55° |
| 2026-05-05 20:38 | -14.24096 | -44.50125 | 37171 ft | 478 kts | 55° |
| 2026-05-05 20:39 | -14.19963 | -44.44746 | 37161 ft | 478 kts | 55° |
| 2026-05-05 20:39 | -14.15836 | -44.39380 | 37172 ft | 477 kts | 55° |
| 2026-05-05 20:40 | -14.11738 | -44.34051 | 37159 ft | 477 kts | 55° |
| 2026-05-05 20:40 | -14.07594 | -44.28667 | 37159 ft | 477 kts | 55° |
| 2026-05-05 20:41 | -14.03503 | -44.23348 | 37179 ft | 477 kts | 55° |
| 2026-05-05 20:41 | -13.99381 | -44.17999 | 37159 ft | 477 kts | 55° |
| 2026-05-05 20:42 | -13.95249 | -44.12647 | 37157 ft | 477 kts | 55° |
| 2026-05-05 20:42 | -13.91113 | -44.07299 | 37170 ft | 477 kts | 55° |
| 2026-05-05 20:43 | -13.86979 | -44.01947 | 37149 ft | 478 kts | 55° |
| 2026-05-05 20:43 | -13.82846 | -43.96599 | 37164 ft | 477 kts | 55° |
| 2026-05-05 20:44 | -13.78711 | -43.91249 | 37161 ft | 477 kts | 55° |
| 2026-05-05 20:44 | -13.74575 | -43.85909 | 37153 ft | 478 kts | 55° |
| 2026-05-05 20:45 | -13.68357 | -43.77881 | 37130 ft | 478 kts | 55° |
| 2026-05-05 20:45 | -13.64211 | -43.72540 | 37123 ft | 478 kts | 54° |
| 2026-05-05 20:46 | -13.60070 | -43.67195 | 37136 ft | 478 kts | 54° |
| 2026-05-05 20:46 | -13.55954 | -43.61890 | 37132 ft | 477 kts | 54° |
| 2026-05-05 20:47 | -13.51812 | -43.56552 | 37122 ft | 478 kts | 54° |
| 2026-05-05 20:47 | -13.47666 | -43.51225 | 37129 ft | 477 kts | 54° |
| 2026-05-05 20:48 | -13.43520 | -43.45893 | 37138 ft | 477 kts | 54° |
| 2026-05-05 20:48 | -13.39379 | -43.40565 | 37127 ft | 477 kts | 54° |
| 2026-05-05 20:49 | -13.35242 | -43.35248 | 37123 ft | 477 kts | 54° |
| 2026-05-05 20:49 | -13.31110 | -43.29939 | 37136 ft | 476 kts | 54° |
| 2026-05-05 20:50 | -13.26972 | -43.24627 | 37135 ft | 476 kts | 54° |
| 2026-05-05 20:50 | -13.22834 | -43.19319 | 37122 ft | 476 kts | 54° |
| 2026-05-05 20:51 | -13.18684 | -43.14002 | 37130 ft | 480 kts | 54° |
| 2026-05-05 20:51 | -13.14480 | -43.08635 | 37133 ft | 485 kts | 53° |
| 2026-05-05 20:52 | -13.10222 | -43.03216 | 37129 ft | 491 kts | 53° |
| 2026-05-05 20:52 | -13.05901 | -42.97723 | 37139 ft | 497 kts | 53° |
| 2026-05-05 20:53 | -13.01537 | -42.92178 | 37133 ft | 502 kts | 53° |
| 2026-05-05 20:53 | -12.97157 | -42.86585 | 37127 ft | 503 kts | 53° |
| 2026-05-05 20:54 | -12.92779 | -42.80988 | 37126 ft | 503 kts | 53° |
| 2026-05-05 20:54 | -12.88430 | -42.75434 | 37130 ft | 502 kts | 53° |
| 2026-05-05 20:55 | -12.84063 | -42.69855 | 37123 ft | 502 kts | 53° |
| 2026-05-05 20:55 | -12.79696 | -42.64287 | 37133 ft | 501 kts | 53° |
| 2026-05-05 20:56 | -12.75333 | -42.58727 | 37132 ft | 500 kts | 53° |
| 2026-05-05 20:56 | -12.70974 | -42.53170 | 37123 ft | 500 kts | 53° |
| 2026-05-05 20:57 | -12.66613 | -42.47618 | 37125 ft | 500 kts | 52° |
| 2026-05-05 20:57 | -12.62259 | -42.42082 | 37129 ft | 499 kts | 52° |
| 2026-05-05 20:58 | -12.57906 | -42.36542 | 37136 ft | 499 kts | 52° |
| 2026-05-05 20:58 | -12.53552 | -42.31006 | 37130 ft | 500 kts | 52° |
| 2026-05-05 20:59 | -12.49195 | -42.25469 | 37134 ft | 499 kts | 52° |
| 2026-05-05 20:59 | -12.44842 | -42.19942 | 37124 ft | 499 kts | 52° |
| 2026-05-05 21:00 | -12.40485 | -42.14413 | 37124 ft | 499 kts | 52° |
| 2026-05-05 21:00 | -12.36136 | -42.08896 | 37112 ft | 498 kts | 52° |
| 2026-05-05 21:01 | -12.31783 | -42.03376 | 37121 ft | 498 kts | 52° |
| 2026-05-05 21:01 | -12.27431 | -41.97865 | 37136 ft | 498 kts | 52° |
| 2026-05-05 21:02 | -12.23082 | -41.92358 | 37126 ft | 498 kts | 52° |
| 2026-05-05 21:02 | -12.18735 | -41.86859 | 37129 ft | 498 kts | 52° |
| 2026-05-05 21:03 | -12.14378 | -41.81354 | 37127 ft | 498 kts | 52° |
| 2026-05-05 21:03 | -12.10027 | -41.75852 | 37135 ft | 498 kts | 52° |
| 2026-05-05 21:04 | -12.05703 | -41.70389 | 37131 ft | 498 kts | 52° |
| 2026-05-05 21:04 | -12.01313 | -41.64923 | 37148 ft | 497 kts | 46° |
| 2026-05-05 21:05 | -11.96714 | -41.59636 | 37123 ft | 497 kts | 48° |
| 2026-05-05 21:05 | -11.92297 | -41.54204 | 37129 ft | 497 kts | 49° |
| 2026-05-05 21:06 | -11.87939 | -41.48716 | 37107 ft | 498 kts | 49° |
| 2026-05-05 21:06 | -11.83600 | -41.43239 | 37112 ft | 496 kts | 49° |
| 2026-05-05 21:07 | -11.79256 | -41.37759 | 37115 ft | 496 kts | 49° |
| 2026-05-05 21:07 | -11.74919 | -41.32284 | 37119 ft | 495 kts | 49° |
| 2026-05-05 21:08 | -11.71287 | -41.27713 | 37120 ft | 495 kts | 49° |
| 2026-05-05 21:08 | -11.66254 | -41.21374 | 37114 ft | 494 kts | 49° |
| 2026-05-05 21:09 | -11.61922 | -41.15914 | 37111 ft | 496 kts | 50° |
| 2026-05-05 21:09 | -11.58304 | -41.11363 | 37114 ft | 498 kts | 49° |
| 2026-05-05 21:10 | -11.53941 | -41.05875 | 37111 ft | 498 kts | 49° |
| 2026-05-05 21:10 | -11.49587 | -41.00400 | 37113 ft | 497 kts | 49° |
| 2026-05-05 21:11 | -11.45235 | -40.94939 | 37101 ft | 496 kts | 49° |
| 2026-05-05 21:11 | -11.40882 | -40.89479 | 37111 ft | 497 kts | 49° |
| 2026-05-05 21:12 | -11.36531 | -40.84027 | 37097 ft | 495 kts | 49° |
| 2026-05-05 21:12 | -11.32192 | -40.78579 | 37098 ft | 495 kts | 49° |
| 2026-05-05 21:13 | -11.27851 | -40.73137 | 37091 ft | 494 kts | 49° |
| 2026-05-05 21:13 | -11.23520 | -40.67705 | 37094 ft | 494 kts | 49° |
| 2026-05-05 21:14 | -11.19180 | -40.62280 | 37085 ft | 494 kts | 49° |
| 2026-05-05 21:14 | -11.14841 | -40.56854 | 37081 ft | 494 kts | 49° |
| 2026-05-05 21:15 | -11.10508 | -40.51434 | 37084 ft | 494 kts | 49° |
| 2026-05-05 21:15 | -11.06189 | -40.45988 | 37072 ft | 494 kts | 51° |
| 2026-05-05 21:16 | -11.02168 | -40.40375 | 37073 ft | 493 kts | 52° |
| 2026-05-05 21:16 | -10.98115 | -40.34747 | 37064 ft | 493 kts | 52° |
| 2026-05-05 21:17 | -10.94037 | -40.29130 | 37065 ft | 493 kts | 52° |
| 2026-05-05 21:17 | -10.89958 | -40.23521 | 37066 ft | 492 kts | 52° |
| 2026-05-05 21:18 | -10.85884 | -40.17924 | 37052 ft | 492 kts | 52° |
| 2026-05-05 21:18 | -10.81806 | -40.12326 | 37054 ft | 492 kts | 52° |
| 2026-05-05 21:19 | -10.77733 | -40.06735 | 37056 ft | 492 kts | 51° |
| 2026-05-05 21:19 | -10.73653 | -40.01144 | 37056 ft | 492 kts | 51° |
| 2026-05-05 21:20 | -10.69579 | -39.95565 | 37055 ft | 489 kts | 51° |
| 2026-05-05 21:20 | -10.65508 | -39.89991 | 37059 ft | 496 kts | 51° |
| 2026-05-05 21:21 | -10.61343 | -39.84291 | 37049 ft | 507 kts | 51° |
| 2026-05-05 21:21 | -10.59282 | -39.81461 | 37020 ft | 488 kts | 51° |
| 2026-05-05 21:21 | -10.57301 | -39.78744 | 36976 ft | 470 kts | 51° |
| 2026-05-05 21:22 | -10.55384 | -39.76117 | 36964 ft | 456 kts | 51° |
| 2026-05-05 21:22 | -10.53505 | -39.73548 | 37061 ft | 452 kts | 51° |
| 2026-05-05 21:22 | -10.49711 | -39.68370 | 37050 ft | 459 kts | 51° |
| 2026-05-05 21:23 | -10.45891 | -39.63152 | 37058 ft | 461 kts | 51° |
| 2026-05-05 21:23 | -10.42064 | -39.57920 | 37063 ft | 461 kts | 51° |
| 2026-05-05 21:24 | -10.38232 | -39.52692 | 37050 ft | 469 kts | 51° |
| 2026-05-05 21:24 | -10.34290 | -39.47312 | 37039 ft | 480 kts | 51° |
| 2026-05-05 21:25 | -10.30287 | -39.41850 | 37033 ft | 483 kts | 51° |
| 2026-05-05 21:25 | -10.26273 | -39.36382 | 37023 ft | 483 kts | 51° |
| 2026-05-05 21:26 | -10.22260 | -39.30913 | 37020 ft | 483 kts | 51° |
| 2026-05-05 21:26 | -10.18246 | -39.25447 | 37020 ft | 482 kts | 51° |
| 2026-05-05 21:27 | -10.14234 | -39.19990 | 37030 ft | 483 kts | 51° |
| 2026-05-05 21:27 | -10.10219 | -39.14529 | 37030 ft | 483 kts | 51° |
| 2026-05-05 21:28 | -10.06203 | -39.09071 | 37025 ft | 482 kts | 51° |
| 2026-05-05 21:28 | -10.02189 | -39.03613 | 37028 ft | 482 kts | 51° |
| 2026-05-05 21:29 | -9.98179 | -38.98165 | 37033 ft | 481 kts | 51° |
| 2026-05-05 21:29 | -9.94182 | -38.92742 | 37032 ft | 480 kts | 51° |
| 2026-05-05 21:30 | -9.90213 | -38.87353 | 37027 ft | 480 kts | 51° |
| 2026-05-05 21:30 | -9.86189 | -38.81897 | 37026 ft | 480 kts | 51° |
| 2026-05-05 21:31 | -9.82209 | -38.76507 | 37027 ft | 480 kts | 51° |
| 2026-05-05 21:31 | -9.78213 | -38.71091 | 37026 ft | 480 kts | 51° |
| 2026-05-05 21:32 | -9.74214 | -38.65676 | 37030 ft | 480 kts | 51° |
| 2026-05-05 21:32 | -9.70212 | -38.60262 | 37028 ft | 480 kts | 51° |
| 2026-05-05 21:33 | -9.66218 | -38.54852 | 37021 ft | 479 kts | 51° |
| 2026-05-05 21:33 | -9.62220 | -38.49437 | 37019 ft | 480 kts | 51° |
| 2026-05-05 21:34 | -9.58217 | -38.44032 | 37017 ft | 480 kts | 51° |
| 2026-05-05 21:34 | -9.54216 | -38.38627 | 37020 ft | 479 kts | 51° |
| 2026-05-05 21:35 | -9.50217 | -38.33226 | 37017 ft | 479 kts | 51° |
| 2026-05-05 21:35 | -9.46224 | -38.27831 | 37020 ft | 478 kts | 51° |
| 2026-05-05 21:36 | -9.42224 | -38.22445 | 37019 ft | 479 kts | 51° |
| 2026-05-05 21:36 | -9.38227 | -38.17048 | 37019 ft | 478 kts | 51° |
| 2026-05-05 21:37 | -9.36263 | -38.14398 | 36993 ft | 464 kts | 51° |
| 2026-05-05 21:37 | -9.34350 | -38.11817 | 36974 ft | 455 kts | 51° |
| 2026-05-05 21:37 | -9.30556 | -38.06708 | 37031 ft | 456 kts | 51° |
| 2026-05-05 21:38 | -9.26774 | -38.01606 | 37035 ft | 456 kts | 51° |
| 2026-05-05 21:38 | -9.22960 | -37.96477 | 37051 ft | 454 kts | 51° |
| 2026-05-05 21:39 | -9.19163 | -37.91369 | 37051 ft | 454 kts | 51° |
| 2026-05-05 21:39 | -9.15367 | -37.86262 | 37047 ft | 454 kts | 51° |
| 2026-05-05 21:40 | -9.11571 | -37.81159 | 37049 ft | 453 kts | 51° |
| 2026-05-05 21:40 | -9.07777 | -37.76059 | 37047 ft | 453 kts | 51° |
| 2026-05-05 21:41 | -9.03982 | -37.70963 | 37048 ft | 453 kts | 51° |
| 2026-05-05 21:41 | -9.00193 | -37.65873 | 37049 ft | 453 kts | 51° |
| 2026-05-05 21:42 | -8.96404 | -37.60786 | 37046 ft | 453 kts | 51° |
| 2026-05-05 21:42 | -8.92612 | -37.55696 | 37027 ft | 453 kts | 51° |
| 2026-05-05 21:43 | -8.88823 | -37.50612 | 37044 ft | 453 kts | 51° |
| 2026-05-05 21:43 | -8.85031 | -37.45525 | 37036 ft | 453 kts | 51° |
| 2026-05-05 21:44 | -8.81265 | -37.40480 | 37042 ft | 452 kts | 51° |
| 2026-05-05 21:44 | -8.77480 | -37.35403 | 37035 ft | 452 kts | 51° |
| 2026-05-05 21:45 | -8.73686 | -37.30327 | 37036 ft | 452 kts | 51° |
| 2026-05-05 21:45 | -8.69894 | -37.25253 | 37038 ft | 452 kts | 51° |
| 2026-05-05 21:46 | -8.66109 | -37.20183 | 37032 ft | 452 kts | 51° |
| 2026-05-05 21:46 | -8.62320 | -37.15112 | 37036 ft | 452 kts | 51° |
| 2026-05-05 21:47 | -8.58533 | -37.10053 | 37041 ft | 451 kts | 51° |
| 2026-05-05 21:47 | -8.54750 | -37.04994 | 37035 ft | 451 kts | 51° |
| 2026-05-05 21:48 | -8.50962 | -36.99934 | 37035 ft | 451 kts | 51° |
| 2026-05-05 21:48 | -8.47173 | -36.94873 | 37035 ft | 451 kts | 51° |
| 2026-05-05 21:49 | -8.43389 | -36.89827 | 37045 ft | 451 kts | 51° |
| 2026-05-05 21:49 | -8.39608 | -36.84776 | 37040 ft | 451 kts | 51° |
| 2026-05-05 21:50 | -8.35825 | -36.79729 | 37033 ft | 451 kts | 51° |
| 2026-05-05 21:50 | -8.32066 | -36.74711 | 37041 ft | 450 kts | 51° |
| 2026-05-05 21:51 | -8.28287 | -36.69674 | 37037 ft | 450 kts | 51° |
| 2026-05-05 21:51 | -8.24507 | -36.64638 | 37042 ft | 450 kts | 51° |
| 2026-05-05 21:52 | -8.20774 | -36.59638 | 36418 ft | 436 kts | 54° |
| 2026-05-05 21:52 | -8.19248 | -36.57006 | 35756 ft | 435 kts | 63° |
| 2026-05-05 21:52 | -8.17971 | -36.54257 | 35226 ft | 431 kts | 64° |
| 2026-05-05 21:53 | -8.16685 | -36.51530 | 34615 ft | 428 kts | 63° |
| 2026-05-05 21:53 | -8.15375 | -36.48843 | 34071 ft | 425 kts | 63° |
| 2026-05-05 21:53 | -8.14055 | -36.46182 | 33498 ft | 423 kts | 62° |
| 2026-05-05 21:53 | -8.12730 | -36.43537 | 32935 ft | 423 kts | 62° |
| 2026-05-05 21:54 | -8.11394 | -36.40882 | 32393 ft | 424 kts | 62° |
| 2026-05-05 21:54 | -8.10056 | -36.38221 | 31798 ft | 427 kts | 62° |
| 2026-05-05 21:54 | -8.08712 | -36.35546 | 31257 ft | 427 kts | 62° |
| 2026-05-05 21:54 | -8.07367 | -36.32877 | 30670 ft | 427 kts | 62° |
| 2026-05-05 21:55 | -8.06021 | -36.30210 | 30092 ft | 426 kts | 62° |
| 2026-05-05 21:55 | -8.04678 | -36.27551 | 29535 ft | 425 kts | 62° |
| 2026-05-05 21:55 | -8.03340 | -36.24899 | 28980 ft | 425 kts | 62° |
| 2026-05-05 21:55 | -8.01998 | -36.22234 | 28411 ft | 426 kts | 62° |
| 2026-05-05 21:56 | -8.00653 | -36.19571 | 27838 ft | 425 kts | 62° |
| 2026-05-05 21:56 | -7.99317 | -36.16928 | 27278 ft | 422 kts | 62° |
| 2026-05-05 21:56 | -7.97987 | -36.14296 | 26714 ft | 418 kts | 62° |
| 2026-05-05 21:56 | -7.96670 | -36.11693 | 26162 ft | 414 kts | 63° |
| 2026-05-05 21:57 | -7.95376 | -36.09119 | 25620 ft | 410 kts | 63° |
| 2026-05-05 21:57 | -7.94508 | -36.07421 | 25257 ft | 411 kts | 62° |
| 2026-05-05 21:57 | -7.93212 | -36.04860 | 24717 ft | 407 kts | 63° |
| 2026-05-05 21:57 | -7.91934 | -36.02332 | 24173 ft | 402 kts | 63° |
| 2026-05-05 21:58 | -7.90258 | -35.99037 | 23467 ft | 398 kts | 64° |
| 2026-05-05 21:58 | -7.89034 | -35.96545 | 22953 ft | 397 kts | 64° |
| 2026-05-05 21:58 | -7.88203 | -35.94864 | 22586 ft | 395 kts | 63° |
| 2026-05-05 21:58 | -7.86959 | -35.92419 | 22072 ft | 390 kts | 63° |
| 2026-05-05 21:59 | -7.85724 | -35.89999 | 21555 ft | 386 kts | 63° |
| 2026-05-05 21:59 | -7.84506 | -35.87606 | 21040 ft | 381 kts | 63° |
| 2026-05-05 21:59 | -7.83304 | -35.85243 | 20540 ft | 377 kts | 63° |
| 2026-05-05 21:59 | -7.82115 | -35.82902 | 20044 ft | 373 kts | 63° |
| 2026-05-05 22:00 | -7.80938 | -35.80583 | 19553 ft | 370 kts | 63° |
| 2026-05-05 22:00 | -7.79774 | -35.78287 | 19059 ft | 366 kts | 63° |
| 2026-05-05 22:00 | -7.78617 | -35.76012 | 18579 ft | 363 kts | 63° |
| 2026-05-05 22:00 | -7.77485 | -35.73784 | 18108 ft | 360 kts | 64° |
| 2026-05-05 22:01 | -7.76347 | -35.71549 | 17629 ft | 357 kts | 63° |
| 2026-05-05 22:01 | -7.75219 | -35.69327 | 17162 ft | 354 kts | 63° |
| 2026-05-05 22:01 | -7.74102 | -35.67129 | 16690 ft | 351 kts | 64° |
| 2026-05-05 22:01 | -7.73023 | -35.64936 | 16226 ft | 346 kts | 69° |
| 2026-05-05 22:02 | -7.72519 | -35.62594 | 15801 ft | 340 kts | 84° |
| 2026-05-05 22:02 | -7.72339 | -35.60221 | 15327 ft | 339 kts | 86° |
| 2026-05-05 22:02 | -7.72178 | -35.57863 | 14865 ft | 335 kts | 86° |
| 2026-05-05 22:02 | -7.71997 | -35.55530 | 14424 ft | 333 kts | 85° |
| 2026-05-05 22:03 | -7.71807 | -35.53214 | 13980 ft | 329 kts | 85° |
| 2026-05-05 22:03 | -7.71613 | -35.50931 | 13549 ft | 326 kts | 85° |
| 2026-05-05 22:03 | -7.71418 | -35.48669 | 13115 ft | 321 kts | 85° |
| 2026-05-05 22:03 | -7.71228 | -35.46449 | 12683 ft | 315 kts | 85° |
| 2026-05-05 22:04 | -7.71039 | -35.44273 | 12293 ft | 309 kts | 85° |
| 2026-05-05 22:04 | -7.70850 | -35.42136 | 11882 ft | 304 kts | 85° |
| 2026-05-05 22:04 | -7.70664 | -35.40030 | 11478 ft | 299 kts | 85° |
| 2026-05-05 22:04 | -7.70484 | -35.37963 | 11146 ft | 293 kts | 85° |
| 2026-05-05 22:05 | -7.70303 | -35.35943 | 10848 ft | 287 kts | 85° |
| 2026-05-05 22:05 | -7.70131 | -35.33955 | 10551 ft | 283 kts | 86° |
| 2026-05-05 22:05 | -7.69959 | -35.31991 | 10361 ft | 281 kts | 86° |
| 2026-05-05 22:05 | -7.69789 | -35.30020 | 10137 ft | 284 kts | 86° |
| 2026-05-05 22:06 | -7.69618 | -35.28030 | 9889 ft | 285 kts | 86° |
| 2026-05-05 22:06 | -7.69446 | -35.26037 | 9667 ft | 286 kts | 86° |
| 2026-05-05 22:06 | -7.69271 | -35.24041 | 9437 ft | 285 kts | 86° |
| 2026-05-05 22:06 | -7.69096 | -35.22055 | 9195 ft | 284 kts | 87° |
| 2026-05-05 22:07 | -7.68925 | -35.20078 | 8973 ft | 284 kts | 87° |
| 2026-05-05 22:07 | -7.68750 | -35.18097 | 8746 ft | 284 kts | 87° |
| 2026-05-05 22:07 | -7.68582 | -35.16145 | 8508 ft | 282 kts | 87° |
| 2026-05-05 22:07 | -7.68406 | -35.14180 | 8276 ft | 282 kts | 87° |
| 2026-05-05 22:08 | -7.68232 | -35.12216 | 8024 ft | 280 kts | 87° |
| 2026-05-05 22:08 | -7.68063 | -35.10266 | 7729 ft | 280 kts | 87° |
| 2026-05-05 22:08 | -7.68139 | -35.08331 | 7360 ft | 274 kts | 108° |
| 2026-05-05 22:08 | -7.69125 | -35.06750 | 7111 ft | 267 kts | 139° |
| 2026-05-05 22:09 | -7.70763 | -35.05942 | 6775 ft | 263 kts | 164° |
| 2026-05-05 22:09 | -7.72532 | -35.05494 | 6414 ft | 262 kts | 163° |
| 2026-05-05 22:09 | -7.74279 | -35.04999 | 6038 ft | 258 kts | 162° |
| 2026-05-05 22:09 | -7.75965 | -35.04440 | 5720 ft | 254 kts | 159° |
| 2026-05-05 22:10 | -7.77624 | -35.03844 | 5368 ft | 252 kts | 159° |
| 2026-05-05 22:10 | -7.79273 | -35.03278 | 5041 ft | 250 kts | 160° |
| 2026-05-05 22:10 | -7.80889 | -35.02752 | 4972 ft | 237 kts | 161° |
| 2026-05-05 22:10 | -7.82435 | -35.02251 | 4933 ft | 233 kts | 161° |
| 2026-05-05 22:11 | -7.84001 | -35.01746 | 4532 ft | 240 kts | 161° |
| 2026-05-05 22:11 | -7.85605 | -35.01243 | 4068 ft | 243 kts | 162° |
| 2026-05-05 22:11 | -7.87242 | -35.00755 | 3580 ft | 247 kts | 161° |
| 2026-05-05 22:11 | -7.88889 | -35.00206 | 3101 ft | 251 kts | 160° |
| 2026-05-05 22:12 | -7.90559 | -34.99642 | 2603 ft | 253 kts | 160° |
| 2026-05-05 22:12 | -7.92183 | -34.99113 | 2162 ft | 235 kts | 161° |
| 2026-05-05 22:12 | -7.93652 | -34.98622 | 2007 ft | 207 kts | 160° |
| 2026-05-05 22:12 | -7.94937 | -34.98191 | 1976 ft | 183 kts | 161° |
| 2026-05-05 22:13 | -7.96069 | -34.97821 | 1943 ft | 157 kts | 160° |
| 2026-05-05 22:13 | -7.97003 | -34.97507 | 2049 ft | 132 kts | 159° |
| 2026-05-05 22:13 | -7.97874 | -34.97219 | 2074 ft | 131 kts | 160° |
| 2026-05-05 22:13 | -7.98745 | -34.96931 | 2091 ft | 131 kts | 160° |
| 2026-05-05 22:14 | -7.99621 | -34.96640 | 2061 ft | 134 kts | 160° |
| 2026-05-05 22:14 | -8.00496 | -34.96349 | 1957 ft | 129 kts | 160° |
| 2026-05-05 22:14 | -8.01339 | -34.96070 | 1969 ft | 127 kts | 160° |
| 2026-05-05 22:14 | -8.02183 | -34.95790 | 1948 ft | 130 kts | 160° |
| 2026-05-05 22:15 | -8.03056 | -34.95502 | 1765 ft | 132 kts | 160° |
| 2026-05-05 22:15 | -8.03912 | -34.95218 | 1583 ft | 128 kts | 160° |
| 2026-05-05 22:15 | -8.04754 | -34.94934 | 1417 ft | 128 kts | 160° |
| 2026-05-05 22:15 | -8.05601 | -34.94657 | 1251 ft | 128 kts | 161° |
| 2026-05-05 22:16 | -8.06444 | -34.94377 | 1077 ft | 127 kts | 160° |
| 2026-05-05 22:16 | -8.07283 | -34.94098 | 912 ft | 126 kts | 160° |
| 2026-05-05 22:16 | -8.08117 | -34.93821 | 740 ft | 126 kts | 161° |
| 2026-05-05 22:16 | -8.08953 | -34.93542 | 574 ft | 127 kts | 161° |
| 2026-05-05 22:17 | -8.09798 | -34.93266 | 401 ft | 128 kts | 160° |
| 2026-05-05 22:17 | -8.10652 | -34.92978 | 233 ft | 130 kts | 159° |
| 2026-05-05 22:17 | -8.11502 | -34.92683 | 63 ft | 128 kts | 161° |
| 2026-05-05 22:17 | -8.12265 | -34.92434 | 38 ft | 102 kts | 163° |
| 2026-05-05 22:18 | -8.12819 | -34.92254 | 39 ft | 62 kts | 161° |
| 2026-05-05 22:18 | -8.13152 | -34.92143 | 35 ft | 36 kts | 154° |
| 2026-05-05 22:18 | -8.13263 | -34.92045 | 35 ft | 9 kts | 129° |
| 2026-05-05 22:18 | -8.13303 | -34.91997 | 35 ft | 8 kts | 129° |
| 2026-05-05 22:19 | -8.13338 | -34.91961 | 34 ft | 6 kts | 131° |
| 2026-05-05 22:19 | -8.13355 | -34.91928 | 36 ft | 3 kts | 81° |
| 2026-05-05 22:19 | -8.13342 | -34.91907 | 36 ft | 4 kts | 63° |
| 2026-05-05 22:19 | -8.13334 | -34.91885 | 36 ft | 3 kts | 71° |
| 2026-05-05 22:20 | -8.13328 | -34.91866 | 35 ft | 0 kts | 72° |